Time;durP1;ratioP1;P1;durP2;ratioP2;P2;SDS_P1;SDS_P2;PMS_P1;PMS_P2;Temp;Humidity;BMP_temperature;BMP_pressure;BME280_temperature;BME280_humidity;BME280_pressure;Samples;Min_cycle;Max_cycle;Signal;HPM_P1;HPM_P2
2021/11/17 02:28:22;;;;;;;19.55;13.13;;;15.30;65.80;;;;;;4830222;29;20053;-78
2021/11/17 02:31:03;;;;;;;17.40;12.63;;;15.30;65.70;;;;;;4818029;29;20358;-77
2021/11/17 02:33:31;;;;;;;18.25;12.60;;;15.30;65.80;;;;;;4856659;29;20053;-76
2021/11/17 02:36:18;;;;;;;16.77;12.27;;;15.30;65.90;;;;;;4864702;29;20054;-78
2021/11/17 02:39:03;;;;;;;18.92;12.73;;;15.30;65.90;;;;;;4864255;29;20057;-78
2021/11/17 02:41:40;;;;;;;18.67;13.30;;;15.30;65.70;;;;;;4864221;29;20132;-76
2021/11/17 02:44:28;;;;;;;17.08;12.65;;;15.30;65.80;;;;;;4864404;29;20145;-77
2021/11/17 02:47:05;;;;;;;17.70;13.40;;;15.30;65.40;;;;;;4864102;29;20085;-78
2021/11/17 02:49:37;;;;;;;17.80;13.38;;;15.30;65.70;;;;;;4848220;29;20053;-77
2021/11/17 02:52:21;;;;;;;17.60;12.90;;;15.30;65.80;;;;;;4864073;29;20077;-78
2021/11/17 02:55:10;;;;;;;18.85;13.70;;;15.30;65.50;;;;;;4848251;29;20418;-75
2021/11/17 02:57:57;;;;;;;22.52;13.52;;;15.30;65.70;;;;;;4847775;29;20064;-78
2021/11/17 03:00:51;;;;;;;20.77;13.68;;;15.30;65.80;;;;;;4864274;29;20057;-76
2021/11/17 03:03:23;;;;;;;;;;;15.30;65.70;;;;;;4830332;29;20072;-77
2021/11/17 03:06:07;;;;;;;18.52;13.50;;;15.20;65.50;;;;;;4863768;29;20340;-78
2021/11/17 03:08:59;;;;;;;21.60;14.88;;;15.20;65.80;;;;;;4864093;29;20432;-79
2021/11/17 03:11:49;;;;;;;18.40;12.93;;;15.20;65.80;;;;;;4863788;29;20061;-76
2021/11/17 03:14:59;;;;;;;19.63;13.98;;;15.20;65.80;;;;;;4863837;29;20145;-77
2021/11/17 03:17:28;;;;;;;20.48;14.43;;;15.30;65.60;;;;;;4797584;29;20495;-75
2021/11/17 03:20:32;;;;;;;22.33;15.05;;;15.20;65.80;;;;;;4863298;29;20053;-77
2021/11/17 03:23:11;;;;;;;;;;;15.20;65.70;;;;;;4843416;29;20061;-78
2021/11/17 03:26:04;;;;;;;20.30;13.27;;;15.20;65.70;;;;;;4863348;29;19935;-77
2021/11/17 03:29:04;;;;;;;22.60;14.43;;;15.20;65.90;;;;;;4847073;29;20068;-76
2021/11/17 03:32:07;;;;;;;20.42;14.82;;;15.20;65.80;;;;;;4863741;29;20053;-77
2021/11/17 03:35:07;;;;;;;20.88;14.82;;;15.20;65.70;;;;;;4862357;29;20064;-78
2021/11/17 03:37:54;;;;;;;22.55;15.88;;;15.20;65.90;;;;;;4858475;29;20122;-77
2021/11/17 03:40:51;;;;;;;22.85;14.73;;;15.20;65.80;;;;;;4847111;29;20125;-78
2021/11/17 03:43:26;;;;;;;23.60;15.57;;;15.20;65.90;;;;;;4831774;29;20097;-77
2021/11/17 03:45:57;;;;;;;20.20;14.32;;;15.20;65.90;;;;;;4847140;29;20053;-76
2021/11/17 03:48:36;;;;;;;19.98;14.55;;;15.30;65.80;;;;;;4863574;29;20046;-76
2021/11/17 03:51:32;;;;;;;21.10;15.25;;;15.20;65.80;;;;;;4847529;29;20067;-78
2021/11/17 03:54:27;;;;;;;22.10;15.07;;;15.20;65.70;;;;;;4831633;29;20061;-77
2021/11/17 03:57:18;;;;;;;23.40;15.43;;;15.20;65.70;;;;;;4820264;29;20069;-76
2021/11/17 03:59:56;;;;;;;20.48;14.23;;;15.20;65.80;;;;;;4854331;29;20152;-76
2021/11/17 04:02:44;;;;;;;24.27;16.42;;;15.20;65.90;;;;;;4861016;29;20045;-76
2021/11/17 04:05:32;;;;;;;24.05;15.95;;;15.20;65.80;;;;;;4847139;29;20513;-78
2021/11/17 04:08:28;;;;;;;24.35;16.33;;;15.20;65.80;;;;;;4847490;29;20343;-76
2021/11/17 04:11:12;;;;;;;23.40;15.95;;;15.20;65.80;;;;;;4863158;29;20064;-76
2021/11/17 04:13:56;;;;;;;23.65;16.17;;;15.20;66.00;;;;;;4863024;29;20130;-76
2021/11/17 04:16:50;;;;;;;21.58;15.18;;;15.20;65.90;;;;;;4846783;29;20050;-76
2021/11/17 04:19:43;;;;;;;24.38;17.20;;;15.20;65.80;;;;;;4862787;29;20061;-77
2021/11/17 04:22:31;;;;;;;23.85;16.80;;;15.20;65.60;;;;;;4863392;29;20401;-76
2021/11/17 04:24:59;;;;;;;26.83;16.88;;;15.20;65.90;;;;;;4862744;29;20094;-77
2021/11/17 04:27:34;;;;;;;22.52;15.98;;;15.10;65.90;;;;;;4862716;29;20053;-77
2021/11/17 04:30:33;;;;;;;24.50;17.58;;;15.20;65.90;;;;;;4846770;29;20068;-78
2021/11/17 04:33:24;;;;;;;19.98;15.02;;;15.20;65.90;;;;;;4862253;29;20072;-77
2021/11/17 04:36:19;;;;;;;23.92;17.42;;;15.20;66.00;;;;;;4862408;29;20381;-77
2021/11/17 04:38:49;;;;;;;23.15;16.20;;;15.20;65.90;;;;;;4841962;29;20065;-77
2021/11/17 04:41:43;;;;;;;24.67;16.80;;;15.20;66.00;;;;;;4850044;29;20057;-77
2021/11/17 04:44:24;;;;;;;25.33;17.27;;;15.20;65.90;;;;;;4866265;29;20136;-77
2021/11/17 04:47:17;;;;;;;24.90;17.45;;;15.10;65.90;;;;;;4850435;29;20087;-77
2021/11/17 04:50:03;;;;;;;23.58;17.02;;;15.10;66.00;;;;;;4866249;29;20045;-77
2021/11/17 04:52:29;;;;;;;24.77;16.77;;;15.10;66.00;;;;;;4849454;29;20061;-78
2021/11/17 04:55:01;;;;;;;23.73;16.25;;;15.10;66.10;;;;;;4850057;29;20465;-77
2021/11/17 04:57:39;;;;;;;23.25;16.58;;;15.10;66.00;;;;;;4866315;29;20053;-78
2021/11/17 05:00:12;;;;;;;25.60;17.55;;;15.10;66.10;;;;;;4848083;29;20054;-76
2021/11/17 05:03:02;;;;;;;27.02;17.83;;;15.00;66.10;;;;;;4849396;29;20049;-79
2021/11/17 05:05:35;;;;;;;28.70;19.73;;;15.10;66.10;;;;;;4865907;29;20061;-74
2021/11/17 05:08:06;;;;;;;29.23;19.65;;;15.10;65.80;;;;;;4865310;29;20053;-77
2021/11/17 05:10:41;;;;;;;32.42;20.67;;;15.10;65.40;;;;;;4865589;29;20045;-75
2021/11/17 05:13:31;;;;;;;32.22;19.67;;;15.10;65.40;;;;;;4864545;29;20062;-76
2021/11/17 05:16:06;;;;;;;26.00;17.60;;;15.10;65.90;;;;;;4843914;29;20080;-73
2021/11/17 05:18:56;;;;;;;24.80;17.60;;;15.00;66.30;;;;;;4847614;29;20453;-74
2021/11/17 05:21:43;;;;;;;40.95;24.17;;;15.10;66.20;;;;;;4864700;29;20081;-73
2021/11/17 05:24:09;;;;;;;28.55;18.40;;;14.90;67.00;;;;;;4865481;29;20092;-75
2021/11/17 05:26:53;;;;;;;28.10;17.05;;;15.20;66.80;;;;;;4865461;29;20080;-74
2021/11/17 05:29:49;;;;;;;38.00;22.77;;;15.50;66.70;;;;;;4865099;29;20362;-80
2021/11/17 05:32:38;;;;;;;25.70;16.55;;;15.60;66.80;;;;;;4864894;29;20049;-79
2021/11/17 05:35:22;;;;;;;25.33;17.08;;;16.00;66.70;;;;;;4850614;29;20049;-78
2021/11/17 05:38:12;;;;;;;29.88;16.48;;;16.30;66.00;;;;;;4833553;29;20046;-84
2021/11/17 06:03:27;;;;;;;23.15;13.77;;;17.30;65.90;;;;;;4774782;30;20124;-81
2021/11/17 06:09:27;;;;;;;25.13;14.75;;;17.50;65.40;;;;;;4718556;30;20051;-83
2021/11/17 06:12:06;;;;;;;27.33;15.38;;;17.60;65.30;;;;;;4704342;30;20044;-80
2021/11/17 06:14:38;;;;;;;26.98;13.98;;;17.70;65.00;;;;;;4769084;30;20051;-80
2021/11/17 06:17:13;;;;;;;27.40;13.90;;;17.80;64.90;;;;;;4788995;29;20047;-83
2021/11/17 06:19:44;;;;;;;24.60;14.57;;;17.90;64.60;;;;;;4776618;29;20050;-83
2021/11/17 06:22:11;;;;;;;27.83;12.95;;;17.90;64.40;;;;;;4792431;29;20050;-82
2021/11/17 06:24:41;;;;;;;20.10;13.75;;;18.00;64.30;;;;;;4789873;30;20043;-83
2021/11/17 06:27:16;;;;;;;21.83;12.50;;;17.90;64.30;;;;;;4776427;30;20071;-83
2021/11/17 06:29:53;;;;;;;21.40;12.27;;;18.00;64.30;;;;;;4777432;29;20042;-82
2021/11/17 06:32:50;;;;;;;21.63;13.40;;;18.10;64.50;;;;;;4790542;30;20053;-85
2021/11/17 06:35:19;;;;;;;20.93;13.30;;;18.10;64.20;;;;;;4789291;30;20386;-80
2021/11/17 06:37:45;;;;;;;20.73;12.80;;;18.10;63.90;;;;;;4789289;30;20058;-82
2021/11/17 06:40:22;;;;;;;25.25;13.10;;;18.10;63.70;;;;;;4791459;29;20134;-81
2021/11/17 06:43:04;;;;;;;23.13;13.73;;;18.30;63.40;;;;;;4784443;29;20076;-79
2021/11/17 06:46:28;;;;;;;25.92;13.38;;;18.30;63.20;;;;;;4783980;30;20087;-81
2021/11/17 06:49:54;;;;;;;28.50;15.65;;;18.40;62.80;;;;;;4782863;30;20135;-82
2021/11/17 06:53:00;;;;;;;;;;;;;;;;;;;;;
2021/11/17 06:56:24;;;;;;;27.00;15.15;;;18.50;62.10;;;;;;4788177;30;20063;-85
2021/11/17 06:59:01;;;;;;;23.33;14.20;;;18.70;61.50;;;;;;4739893;29;20121;-83
2021/11/17 07:01:27;;;;;;;26.02;15.63;;;18.80;60.90;;;;;;4796377;29;20067;-81
2021/11/17 07:03:53;;;;;;;24.10;14.30;;;18.90;60.70;;;;;;4790537;30;20047;-81
2021/11/17 07:06:19;;;;;;;22.45;15.13;;;18.90;60.50;;;;;;4775775;30;20364;-83
2021/11/17 07:08:50;;;;;;;29.20;15.05;;;19.00;60.50;;;;;;4775379;30;20062;-82
2021/11/17 07:11:18;;;;;;;37.92;15.07;;;19.10;60.20;;;;;;4775313;30;20058;-78
2021/11/17 07:13:44;;;;;;;22.40;13.57;;;19.10;60.60;;;;;;4783818;30;20047;-80
2021/11/17 07:16:10;;;;;;;24.73;12.52;;;19.10;60.70;;;;;;4789912;30;20058;-81
2021/11/17 07:18:37;;;;;;;26.77;13.45;;;19.10;60.80;;;;;;4801916;29;20042;-80
2021/11/17 07:21:06;;;;;;;24.35;12.55;;;18.90;61.10;;;;;;4789615;30;20051;-80
2021/11/17 07:23:32;;;;;;;24.15;12.68;;;18.90;61.30;;;;;;4789504;30;20047;-80
2021/11/17 07:25:58;;;;;;;29.30;11.68;;;18.90;61.30;;;;;;4789470;30;20440;-80
2021/11/17 07:28:24;;;;;;;24.73;13.02;;;19.00;61.30;;;;;;4790173;30;20043;-80
2021/11/17 07:30:50;;;;;;;29.52;12.15;;;19.00;61.20;;;;;;4789306;30;20042;-80
2021/11/17 07:33:16;;;;;;;28.00;12.52;;;19.00;61.30;;;;;;4804250;29;20142;-79
2021/11/17 07:35:46;;;;;;;25.70;11.77;;;18.90;61.40;;;;;;4774584;30;20059;-80
2021/11/17 07:38:16;;;;;;;21.15;11.10;;;18.90;61.50;;;;;;4788920;29;20094;-82
2021/11/17 07:40:44;;;;;;;23.70;12.20;;;18.80;61.50;;;;;;4768275;30;20043;-79
2021/11/17 07:43:11;;;;;;;20.08;11.63;;;18.80;61.70;;;;;;4789346;30;20463;-79
2021/11/17 07:45:41;;;;;;;19.38;11.63;;;18.80;61.90;;;;;;4789254;30;20066;-80
2021/11/17 07:48:09;;;;;;;22.65;11.98;;;18.70;62.00;;;;;;4789528;30;20050;-80
2021/11/17 07:50:35;;;;;;;19.80;11.10;;;18.70;62.20;;;;;;4789090;30;20043;-78
2021/11/17 07:53:02;;;;;;;14.10;9.60;;;18.70;62.40;;;;;;4790389;29;20444;-81
2021/11/17 07:55:28;;;;;;;33.65;11.63;;;18.70;62.50;;;;;;4805045;29;20062;-83
2021/11/17 07:57:55;;;;;;;17.85;11.10;;;18.70;62.50;;;;;;4789624;30;20099;-79
2021/11/17 08:00:27;;;;;;;15.88;10.00;;;18.70;62.60;;;;;;4790265;29;20044;-81
2021/11/17 08:02:53;;;;;;;17.27;10.68;;;18.70;62.60;;;;;;4785314;29;20063;-80
2021/11/17 08:05:21;;;;;;;17.00;11.07;;;18.60;62.70;;;;;;4790117;29;20054;-81
2021/11/17 08:07:47;;;;;;;16.45;9.93;;;18.60;62.90;;;;;;4789268;30;20051;-81
2021/11/17 08:10:17;;;;;;;17.30;10.02;;;18.60;63.00;;;;;;4785201;30;20519;-80
2021/11/17 08:12:43;;;;;;;15.10;10.05;;;18.60;63.10;;;;;;4789304;29;20063;-79
2021/11/17 08:15:10;;;;;;;13.30;10.10;;;18.60;63.20;;;;;;4788799;30;20447;-79
2021/11/17 08:17:38;;;;;;;15.02;9.35;;;18.60;63.30;;;;;;4787141;30;20043;-82
2021/11/17 08:20:05;;;;;;;16.10;10.23;;;18.50;63.40;;;;;;4802166;29;20051;-82
2021/11/17 08:22:31;;;;;;;20.08;10.18;;;18.60;63.50;;;;;;4784866;30;20083;-82
2021/11/17 08:24:56;;;;;;;16.60;9.52;;;18.60;63.40;;;;;;4782371;30;20143;-80
2021/11/17 08:27:22;;;;;;;15.70;9.13;;;18.60;63.40;;;;;;4788440;29;20074;-81
2021/11/17 08:29:50;;;;;;;16.05;8.70;;;18.60;63.20;;;;;;4803733;29;20055;-78
2021/11/17 08:32:19;;;;;;;20.13;11.73;;;18.60;63.40;;;;;;4787174;30;20047;-79
2021/11/17 08:34:45;;;;;;;18.45;10.07;;;18.40;62.70;;;;;;4781504;30;20087;-79
2021/11/17 08:37:11;;;;;;;16.35;9.20;;;18.30;63.90;;;;;;4803964;29;20059;-79
2021/11/17 08:39:40;;;;;;;15.38;9.18;;;18.40;64.10;;;;;;4788753;30;20490;-79
2021/11/17 08:46:17;;;;;;;17.17;9.40;;;18.50;63.60;;;;;;4786839;30;20101;-80
2021/11/17 08:52:25;;;;;;;18.30;8.48;;;18.50;63.80;;;;;;4789487;30;20179;-81
2021/11/17 08:55:09;;;;;;;17.65;8.48;;;18.50;63.80;;;;;;4788310;30;20039;-80
2021/11/17 09:16:20;;;;;;;13.82;6.75;;;18.40;64.30;;;;;;4853729;24;20134;-80
2021/11/17 09:26:52;;;;;;;12.00;5.30;;;18.50;64.70;;;;;;4828785;24;20433;-81
2021/11/17 09:29:45;;;;;;;11.10;5.18;;;18.60;64.50;;;;;;4795120;29;20475;-82
2021/11/17 09:32:12;;;;;;;9.75;5.40;;;18.60;64.30;;;;;;4778456;29;20108;-82
2021/11/17 09:34:47;;;;;;;12.90;4.82;;;18.60;64.20;;;;;;4794242;29;20054;-80
2021/11/17 09:37:12;;;;;;;12.70;5.22;;;18.60;64.00;;;;;;4778156;29;20150;-78
2021/11/17 09:39:42;;;;;;;13.25;4.80;;;18.60;63.90;;;;;;4809916;29;20059;-75
2021/11/17 09:42:10;;;;;;;14.02;4.55;;;18.60;63.90;;;;;;4810159;29;20133;-77
2021/11/17 09:44:46;;;;;;;12.45;4.68;;;18.70;64.10;;;;;;4794453;29;20051;-78
2021/11/17 09:47:17;;;;;;;9.75;4.53;;;18.60;63.80;;;;;;4810398;29;20046;-80
2021/11/17 09:50:10;;;;;;;11.35;4.32;;;18.60;63.90;;;;;;4778877;29;20471;-79
2021/11/17 09:52:52;;;;;;;12.13;4.22;;;18.70;64.10;;;;;;4780003;29;20196;-79
2021/11/17 09:55:28;;;;;;;12.18;4.78;;;18.60;64.10;;;;;;4779222;29;20126;-77
2021/11/17 09:58:01;;;;;;;11.63;3.90;;;18.60;64.10;;;;;;4793843;29;20059;-79
2021/11/17 10:00:40;;;;;;;13.95;3.90;;;18.70;64.80;;;;;;4778889;29;20047;-80
2021/11/17 10:03:20;;;;;;;12.40;3.88;;;18.70;63.90;;;;;;4778897;29;20494;-81
2021/11/17 10:11:35;;;;;;;14.05;4.55;;;18.60;64.00;;;;;;4793489;29;20058;-81
2021/11/17 10:14:14;;;;;;;10.98;4.10;;;18.60;64.00;;;;;;4778774;29;20057;-79
2021/11/17 10:16:40;;;;;;;13.60;3.78;;;18.60;64.30;;;;;;4809917;29;20043;-79
2021/11/17 10:19:15;;;;;;;10.30;4.13;;;18.60;64.40;;;;;;4793644;29;20051;-81
2021/11/17 10:21:44;;;;;;;11.80;3.70;;;18.50;64.50;;;;;;4793858;29;20105;-80
2021/11/17 10:24:17;;;;;;;11.13;3.22;;;18.60;64.70;;;;;;4809853;29;20057;-79
2021/11/17 10:26:56;;;;;;;12.52;3.97;;;18.60;64.80;;;;;;4826518;29;20211;-79
2021/11/17 10:29:57;;;;;;;12.88;4.03;;;18.50;64.40;;;;;;4810180;29;20054;-80
2021/11/17 10:32:46;;;;;;;15.52;3.80;;;18.50;64.80;;;;;;4810981;29;20119;-80
2021/11/17 10:35:29;;;;;;;16.05;3.53;;;18.50;64.80;;;;;;4810691;29;20050;-80
2021/11/17 10:38:21;;;;;;;11.75;3.47;;;18.40;64.10;;;;;;4828024;29;20066;-78
2021/11/17 10:40:55;;;;;;;15.85;3.25;;;18.40;63.80;;;;;;4827744;29;20138;-79
2021/11/17 10:43:29;;;;;;;12.40;3.20;;;18.50;63.80;;;;;;4796068;29;20069;-80
2021/11/17 10:46:09;;;;;;;10.52;2.90;;;18.50;63.60;;;;;;4811662;29;20065;-79
2021/11/17 10:48:58;;;;;;;8.73;2.72;;;18.50;63.50;;;;;;4811764;29;20478;-79
2021/11/17 10:51:33;;;;;;;10.73;3.03;;;18.50;63.50;;;;;;4811406;29;20054;-78
2021/11/17 10:54:06;;;;;;;9.98;3.13;;;18.50;62.90;;;;;;4811430;29;20061;-78
2021/11/17 10:56:31;;;;;;;8.90;2.53;;;18.50;62.80;;;;;;4827523;29;20517;-78
2021/11/17 10:59:00;;;;;;;9.75;2.63;;;18.40;62.80;;;;;;4796056;29;20371;-77
2021/11/17 11:01:37;;;;;;;6.82;2.83;;;18.40;62.90;;;;;;4811260;29;20054;-77
2021/11/17 11:04:17;;;;;;;10.27;3.22;;;18.40;63.10;;;;;;4800807;29;20057;-79
2021/11/17 11:06:50;;;;;;;8.65;2.63;;;18.30;63.00;;;;;;4810925;29;20057;-78
2021/11/17 11:09:18;;;;;;;9.55;2.83;;;18.30;63.30;;;;;;4811440;29;20486;-80
2021/11/17 11:11:48;;;;;;;9.70;2.58;;;18.20;63.50;;;;;;4811143;29;20514;-79
2021/11/17 11:14:16;;;;;;;8.95;2.40;;;18.20;63.50;;;;;;4811886;29;20055;-79
2021/11/17 11:16:44;;;;;;;12.52;3.17;;;18.10;63.60;;;;;;4827262;29;20058;-79
2021/11/17 11:19:09;;;;;;;10.77;3.22;;;18.10;63.70;;;;;;4796282;29;20083;-80
2021/11/17 11:21:41;;;;;;;8.00;2.75;;;18.00;63.80;;;;;;4811052;29;20066;-79
2021/11/17 11:24:09;;;;;;;4.53;2.17;;;18.00;63.90;;;;;;4826823;29;20050;-79
2021/11/17 11:27:13;;;;;;;9.57;2.95;;;18.00;64.00;;;;;;4826866;29;20062;-80
2021/11/17 11:29:40;;;;;;;7.50;2.63;;;17.90;63.90;;;;;;4756023;30;20064;-77
2021/11/17 11:32:09;;;;;;;9.63;2.65;;;17.90;64.20;;;;;;4815975;29;20728;-79
2021/11/17 11:34:48;;;;;;;7.80;2.30;;;17.90;64.30;;;;;;4826760;29;20070;-80
2021/11/17 11:37:23;;;;;;;6.60;2.25;;;17.80;64.20;;;;;;4827516;29;20051;-78
2021/11/17 11:39:52;;;;;;;6.05;2.28;;;17.80;64.30;;;;;;4827162;29;20055;-79
2021/11/17 11:42:20;;;;;;;8.50;2.55;;;17.80;64.40;;;;;;4811245;29;20050;-79
2021/11/17 11:44:52;;;;;;;10.50;2.45;;;17.80;64.50;;;;;;4810508;29;20141;-79
2021/11/17 11:47:21;;;;;;;6.75;2.80;;;17.70;64.50;;;;;;4810967;29;20065;-79
2021/11/17 11:50:01;;;;;;;8.98;2.97;;;17.70;64.60;;;;;;4810657;29;20054;-79
2021/11/17 11:52:31;;;;;;;8.48;2.67;;;17.70;65.20;;;;;;4810606;29;20086;-77
2021/11/17 11:55:00;;;;;;;7.88;2.35;;;17.60;64.90;;;;;;4811098;29;20508;-80
2021/11/17 11:57:37;;;;;;;7.07;2.13;;;17.60;64.70;;;;;;4810765;29;20054;-79
2021/11/17 12:00:22;;;;;;;7.15;2.33;;;17.60;64.70;;;;;;4810561;29;20089;-79
2021/11/17 12:02:53;;;;;;;6.53;2.20;;;17.60;64.70;;;;;;4810008;29;20133;-78
2021/11/17 12:05:39;;;;;;;7.13;2.35;;;17.50;64.90;;;;;;4826487;29;20061;-78
2021/11/17 12:08:23;;;;;;;6.75;2.38;;;17.50;64.70;;;;;;4811200;29;20058;-78
2021/11/17 12:11:10;;;;;;;8.13;2.30;;;17.50;64.80;;;;;;4810640;29;20142;-79
2021/11/17 12:13:40;;;;;;;6.15;1.88;;;17.50;64.90;;;;;;4826369;29;20054;-80
2021/11/17 12:16:12;;;;;;;8.80;2.58;;;17.40;65.00;;;;;;4810967;29;20203;-79
2021/11/17 12:18:51;;;;;;;9.60;2.03;;;17.50;65.00;;;;;;4810344;29;20057;-81
2021/11/17 12:21:25;;;;;;;4.82;1.98;;;17.40;64.90;;;;;;4810405;29;20081;-78
2021/11/17 12:24:27;;;;;;;8.40;1.75;;;17.40;65.10;;;;;;4826419;29;20057;-80
2021/11/17 12:27:02;;;;;;;6.22;2.30;;;17.40;64.90;;;;;;4776622;29;20081;-77
2021/11/17 12:29:52;;;;;;;6.50;2.00;;;17.40;65.20;;;;;;4809958;29;20122;-79
2021/11/17 12:32:34;;;;;;;7.25;2.00;;;17.30;65.20;;;;;;4809495;29;20085;-77
2021/11/17 12:35:18;;;;;;;4.72;1.90;;;17.30;65.10;;;;;;4825980;29;20042;-80
2021/11/17 12:37:52;;;;;;;6.68;1.80;;;17.30;65.30;;;;;;4809939;29;20059;-79
2021/11/17 12:40:31;;;;;;;;;;;17.30;65.30;;;;;;4810657;29;20129;-79
2021/11/17 12:42:59;;;;;;;6.97;1.60;;;17.20;65.00;;;;;;4825728;29;19925;-78
2021/11/17 12:45:30;;;;;;;5.65;1.52;;;17.20;65.40;;;;;;4826020;29;20058;-77
2021/11/17 12:48:00;;;;;;;5.18;2.00;;;17.20;65.50;;;;;;4826564;29;20055;-81
2021/11/17 12:50:34;;;;;;;5.93;1.80;;;17.20;65.50;;;;;;4809930;29;20093;-80
2021/11/17 12:52:59;;;;;;;5.57;1.85;;;17.20;65.50;;;;;;4825192;29;20058;-79
2021/11/17 12:55:49;;;;;;;9.52;2.50;;;17.20;65.50;;;;;;4824479;29;20437;-80
2021/11/17 12:58:33;;;;;;;9.05;1.83;;;17.20;65.20;;;;;;4795552;29;20051;-76
2021/11/17 13:01:17;;;;;;;6.75;1.65;;;17.30;64.60;;;;;;4798389;29;20058;-80
2021/11/17 13:03:49;;;;;;;11.63;1.92;;;17.30;64.40;;;;;;4812610;29;20046;-80
2021/11/17 13:06:47;;;;;;;8.68;2.35;;;17.20;64.40;;;;;;4813096;29;20365;-75
2021/11/17 13:09:17;;;;;;;9.85;1.90;;;17.30;64.00;;;;;;4829451;29;20054;-79
2021/11/17 13:11:48;;;;;;;13.40;2.10;;;17.30;63.60;;;;;;4829034;29;20065;-74
2021/11/17 13:14:22;;;;;;;9.13;2.15;;;17.20;63.70;;;;;;4812831;29;20057;-79
2021/11/17 13:16:49;;;;;;;8.88;2.15;;;17.20;63.70;;;;;;4828887;29;20053;-80
2021/11/17 13:19:21;;;;;;;7.35;1.80;;;17.20;63.60;;;;;;4828980;29;20061;-79
2021/11/17 13:21:55;;;;;;;5.80;1.27;;;17.30;63.30;;;;;;4813001;29;20054;-80
2021/11/17 13:24:20;;;;;;;8.65;1.85;;;17.50;63.50;;;;;;4812784;29;20092;-81
2021/11/17 13:26:51;;;;;;;7.35;1.58;;;17.60;63.50;;;;;;4812327;29;20451;-79
2021/11/17 13:30:05;;;;;;;7.05;1.75;;;17.70;63.60;;;;;;4812102;29;20064;-78
2021/11/17 13:32:38;;;;;;;15.60;2.50;;;17.80;64.10;;;;;;4786008;29;20054;-80
2021/11/17 13:35:22;;;;;;;6.93;1.45;;;17.90;64.50;;;;;;4809858;29;20605;-78
2021/11/17 13:37:49;;;;;;;7.32;1.67;;;17.90;64.90;;;;;;4809732;29;20059;-79
2021/11/17 13:40:20;;;;;;;11.52;1.70;;;18.00;64.80;;;;;;4795462;29;20063;-77
2021/11/17 13:42:47;;;;;;;10.35;1.70;;;18.00;65.00;;;;;;4812223;29;20183;-78
2021/11/17 13:45:20;;;;;;;10.35;1.63;;;18.00;65.10;;;;;;4829247;29;20470;-78
2021/11/17 13:47:46;;;;;;;13.45;1.92;;;18.00;65.40;;;;;;4824239;29;20046;-79
2021/11/17 13:50:14;;;;;;;11.27;1.85;;;18.00;65.40;;;;;;4828572;29;20046;-77
2021/11/17 13:52:43;;;;;;;11.38;1.77;;;18.00;65.40;;;;;;4828434;29;20050;-76
2021/11/17 13:55:13;;;;;;;10.27;2.20;;;18.00;65.60;;;;;;4828019;29;20055;-77
2021/11/17 13:57:41;;;;;;;10.30;1.42;;;18.00;65.80;;;;;;4812362;29;20060;-77
2021/11/17 14:00:11;;;;;;;6.78;1.48;;;18.00;65.60;;;;;;4812315;29;20066;-78
2021/11/17 14:02:37;;;;;;;5.47;1.42;;;18.00;65.60;;;;;;4812056;29;20061;-75
2021/11/17 14:05:04;;;;;;;5.25;1.75;;;17.90;65.60;;;;;;4812084;29;20050;-77
2021/11/17 14:07:32;;;;;;;6.28;1.30;;;17.90;65.60;;;;;;4812320;29;20054;-77
2021/11/17 14:09:58;;;;;;;7.00;1.67;;;17.90;65.30;;;;;;4812000;29;20050;-77
2021/11/17 14:12:24;;;;;;;5.78;1.60;;;17.90;65.60;;;;;;4827999;29;20480;-77
2021/11/17 14:15:10;;;;;;;9.20;1.52;;;17.80;65.60;;;;;;4811712;29;20171;-80
2021/11/17 14:17:38;;;;;;;6.53;1.40;;;17.80;65.50;;;;;;4805212;29;20137;-77
2021/11/17 14:20:06;;;;;;;6.60;1.70;;;17.80;65.40;;;;;;4827924;29;20130;-79
2021/11/17 14:22:33;;;;;;;7.30;1.80;;;17.80;65.30;;;;;;4811688;29;20374;-76
2021/11/17 14:25:06;;;;;;;7.97;1.30;;;17.80;65.10;;;;;;4811659;29;20062;-77
2021/11/17 14:27:32;;;;;;;7.05;1.52;;;17.80;65.00;;;;;;4812650;29;20363;-77
2021/11/17 14:30:03;;;;;;;5.35;1.30;;;17.80;65.10;;;;;;4827882;29;20054;-78
2021/11/17 14:32:34;;;;;;;3.92;1.00;;;17.60;62.40;;;;;;4811923;29;20129;-78
2021/11/17 14:35:01;;;;;;;6.03;1.40;;;17.70;64.90;;;;;;4812504;29;20069;-77
2021/11/17 14:37:27;;;;;;;6.35;1.25;;;17.90;65.00;;;;;;4827942;29;20054;-78
2021/11/17 14:39:53;;;;;;;5.15;1.23;;;18.00;65.00;;;;;;4827617;29;20046;-78
2021/11/17 14:42:19;;;;;;;5.85;1.20;;;18.10;64.70;;;;;;4811642;29;20375;-78
2021/11/17 14:44:46;;;;;;;6.25;1.08;;;18.20;64.50;;;;;;4827844;29;20194;-77
2021/11/17 14:47:12;;;;;;;4.20;0.93;;;18.30;64.50;;;;;;4828154;29;20418;-78
2021/11/17 14:49:38;;;;;;;7.70;1.55;;;18.40;64.30;;;;;;4811770;29;20050;-79
2021/11/17 14:52:10;;;;;;;5.15;1.20;;;18.50;64.10;;;;;;4827750;29;20155;-79
2021/11/17 14:54:36;;;;;;;7.28;1.67;;;18.60;64.00;;;;;;4811669;29;20058;-78
2021/11/17 14:57:04;;;;;;;6.35;1.08;;;18.70;64.00;;;;;;4796478;29;20414;-76
2021/11/17 14:59:30;;;;;;;6.85;1.25;;;18.70;63.90;;;;;;4827337;29;20054;-78
2021/11/17 15:01:56;;;;;;;6.13;1.52;;;18.70;64.00;;;;;;4811261;29;20050;-78
2021/11/17 15:04:22;;;;;;;3.95;1.42;;;18.70;64.00;;;;;;4811231;29;20058;-78
2021/11/17 15:06:52;;;;;;;3.80;0.90;;;18.70;64.00;;;;;;4819080;29;20058;-79
2021/11/17 15:09:19;;;;;;;6.15;1.08;;;18.70;64.10;;;;;;4827139;29;20051;-76
2021/11/17 15:11:56;;;;;;;5.40;1.10;;;18.60;64.20;;;;;;4827431;29;20050;-76
2021/11/17 15:14:24;;;;;;;4.25;1.08;;;18.60;64.30;;;;;;4827483;29;20445;-75
2021/11/17 15:16:50;;;;;;;4.88;1.20;;;18.60;64.40;;;;;;4826119;29;20138;-77
2021/11/17 15:19:16;;;;;;;5.80;1.42;;;18.50;64.20;;;;;;4827280;29;20054;-78
2021/11/17 15:21:42;;;;;;;7.13;1.35;;;18.40;64.10;;;;;;4826349;29;20118;-76
2021/11/17 15:24:08;;;;;;;8.95;1.27;;;18.40;64.20;;;;;;4826958;29;20050;-77
2021/11/17 15:27:06;;;;;;;8.20;1.35;;;18.30;64.30;;;;;;4825642;29;20069;-78
2021/11/17 15:29:34;;;;;;;9.00;1.48;;;18.30;64.60;;;;;;4797607;29;20059;-77
2021/11/17 15:31:59;;;;;;;10.20;1.85;;;18.20;64.70;;;;;;4810640;29;20138;-75
2021/11/17 15:34:25;;;;;;;9.75;1.25;;;18.20;64.80;;;;;;4826897;29;20137;-76
2021/11/17 15:36:51;;;;;;;8.27;1.60;;;18.20;64.90;;;;;;4811354;29;20051;-77
2021/11/17 15:39:16;;;;;;;7.30;1.15;;;18.20;64.90;;;;;;4827031;29;20141;-76
2021/11/17 15:41:43;;;;;;;11.27;2.03;;;18.30;64.90;;;;;;4826315;29;20054;-77
2021/11/17 15:44:11;;;;;;;7.95;1.27;;;18.20;64.90;;;;;;4810386;29;20138;-77
2021/11/17 15:46:38;;;;;;;5.45;1.30;;;18.30;64.90;;;;;;4810625;29;20050;-76
2021/11/17 15:49:05;;;;;;;8.55;1.52;;;18.30;65.00;;;;;;4825744;29;20085;-76
2021/11/17 15:51:41;;;;;;;8.65;1.40;;;18.20;65.00;;;;;;4807811;29;20455;-76
2021/11/17 15:54:07;;;;;;;7.15;1.52;;;18.30;64.90;;;;;;4826416;29;20050;-77
2021/11/17 15:56:34;;;;;;;8.95;1.42;;;18.30;64.80;;;;;;4826551;29;20065;-77
2021/11/17 15:59:00;;;;;;;5.57;1.25;;;18.30;64.90;;;;;;4826597;29;20103;-75
2021/11/17 16:01:26;;;;;;;6.72;1.20;;;18.40;65.10;;;;;;4826855;29;20098;-78
2021/11/17 16:03:55;;;;;;;8.27;1.75;;;18.40;65.10;;;;;;4826177;29;20054;-76
2021/11/17 16:06:23;;;;;;;4.65;1.30;;;18.30;65.10;;;;;;4823033;29;20047;-75
2021/11/17 16:08:49;;;;;;;5.47;1.00;;;18.40;65.20;;;;;;4826232;29;20447;-76
2021/11/17 16:11:16;;;;;;;13.00;1.38;;;18.40;65.30;;;;;;4826435;29;20137;-77
2021/11/17 16:13:44;;;;;;;6.88;1.50;;;18.40;65.40;;;;;;4827121;29;20046;-76
2021/11/17 16:16:10;;;;;;;10.10;1.40;;;18.40;65.40;;;;;;4826362;29;20054;-78
2021/11/17 16:18:36;;;;;;;7.57;1.63;;;18.40;65.60;;;;;;4826645;29;20058;-78
2021/11/17 16:21:05;;;;;;;8.02;1.30;;;18.40;65.60;;;;;;4810106;29;20054;-78
2021/11/17 16:26:20;;;;;;;7.18;0.80;;;18.30;65.60;;;;;;4809713;29;20058;-78
2021/11/17 16:28:51;;;;;;;6.70;1.13;;;18.30;65.60;;;;;;4809900;29;20069;-78
2021/11/17 16:31:21;;;;;;;5.78;1.17;;;18.30;65.80;;;;;;4809719;29;20058;-77
2021/11/17 16:33:47;;;;;;;14.43;1.65;;;18.30;66.00;;;;;;4809201;29;20133;-79
2021/11/17 16:36:13;;;;;;;8.73;1.55;;;18.30;66.20;;;;;;4825784;29;20481;-77
2021/11/17 16:38:43;;;;;;;8.13;1.38;;;18.30;66.30;;;;;;4826339;29;20090;-77
2021/11/17 16:41:11;;;;;;;8.00;1.70;;;18.30;66.40;;;;;;4810224;29;20131;-78
2021/11/17 16:43:37;;;;;;;9.30;1.58;;;18.30;67.10;;;;;;4809519;29;20054;-77
2021/11/17 16:46:04;;;;;;;6.55;1.48;;;18.20;66.60;;;;;;4825824;29;20048;-78
2021/11/17 16:48:30;;;;;;;10.45;1.80;;;18.20;66.60;;;;;;4825799;29;20449;-77
2021/11/17 16:50:58;;;;;;;12.80;1.48;;;18.20;66.50;;;;;;4825902;29;20042;-77
2021/11/17 16:53:25;;;;;;;10.13;1.80;;;18.20;66.60;;;;;;4810167;29;20526;-77
2021/11/17 16:55:51;;;;;;;7.28;1.45;;;18.10;66.50;;;;;;4809663;29;20058;-77